Time;durP1;ratioP1;P1;durP2;ratioP2;P2;SDS_P1;SDS_P2;PMS_P1;PMS_P2;Temp;Humidity;BMP_temperature;BMP_pressure;BME280_temperature;BME280_humidity;BME280_pressure;Samples;Min_cycle;Max_cycle;Signal;HPM_P1;HPM_P2
2021/07/24 00:00:25;;;;;;;1.50;0.90;;;19.80;88.90;;;;;;5000455;28;20467;-78
2021/07/24 00:02:52;;;;;;;1.50;0.90;;;19.80;89.00;;;;;;5003117;28;20490;-79
2021/07/24 00:05:18;;;;;;;1.50;0.90;;;19.80;89.40;;;;;;5000273;28;20465;-78
2021/07/24 00:07:45;;;;;;;1.50;0.90;;;19.80;90.40;;;;;;5005135;28;20476;-79
2021/07/24 00:10:12;;;;;;;1.50;0.90;;;19.70;90.00;;;;;;5002279;28;20464;-79
2021/07/24 00:12:39;;;;;;;1.50;0.90;;;19.70;90.60;;;;;;5002062;28;20491;-78
2021/07/24 00:15:07;;;;;;;1.50;0.90;;;19.70;90.10;;;;;;5006954;28;20471;-78
2021/07/24 00:17:34;;;;;;;1.50;0.90;;;19.60;90.50;;;;;;5008156;28;20483;-78
2021/07/24 00:20:01;;;;;;;1.50;0.90;;;19.60;90.70;;;;;;4996627;28;20482;-78
2021/07/24 00:22:28;;;;;;;1.50;0.90;;;19.60;91.60;;;;;;5008030;28;20872;-78
2021/07/24 00:24:54;;;;;;;1.50;1.00;;;19.50;91.00;;;;;;5009823;28;20838;-78
2021/07/24 00:27:21;;;;;;;1.50;0.90;;;19.50;90.80;;;;;;5005655;28;20479;-78
2021/07/24 00:29:50;;;;;;;1.50;1.00;;;19.50;91.10;;;;;;5005989;28;20489;-78
2021/07/24 00:32:18;;;;;;;1.50;0.90;;;19.40;91.20;;;;;;5009277;28;20475;-79
2021/07/24 00:34:45;;;;;;;1.50;1.00;;;19.40;91.80;;;;;;5011109;28;20997;-78
2021/07/24 00:37:11;;;;;;;1.50;0.90;;;19.40;92.00;;;;;;5001591;28;21009;-79
2021/07/24 00:39:38;;;;;;;1.50;0.90;;;19.40;91.70;;;;;;5000200;28;20489;-78
2021/07/24 00:42:16;;;;;;;1.50;1.00;;;19.30;92.50;;;;;;5001529;28;20518;-79
2021/07/24 00:44:45;;;;;;;1.50;0.93;;;19.30;91.90;;;;;;5001552;28;20531;-78
2021/07/24 00:47:16;;;;;;;1.50;1.00;;;19.30;92.60;;;;;;5001831;28;20506;-78
2021/07/24 00:49:45;;;;;;;1.50;0.90;;;19.30;92.20;;;;;;5000793;28;20465;-79
2021/07/24 00:52:11;;;;;;;1.50;0.90;;;19.20;91.80;;;;;;4997600;28;20480;-78
2021/07/24 00:54:39;;;;;;;1.50;0.90;;;19.20;91.80;;;;;;5006875;28;20548;-78
2021/07/24 00:57:06;;;;;;;1.50;0.90;;;19.10;92.10;;;;;;4995135;28;20513;-78
2021/07/24 00:59:34;;;;;;;1.50;0.90;;;19.10;92.20;;;;;;5003580;28;20499;-79
2021/07/24 01:02:01;;;;;;;1.50;0.97;;;19.10;92.40;;;;;;4999871;28;20480;-78
2021/07/24 01:04:27;;;;;;;1.50;0.90;;;19.10;93.00;;;;;;5013682;28;20468;-79
2021/07/24 01:06:56;;;;;;;1.50;0.90;;;19.10;94.00;;;;;;4995584;28;20846;-79
2021/07/24 01:09:24;;;;;;;1.50;0.90;;;19.00;93.40;;;;;;5006603;28;20729;-78
2021/07/24 01:11:51;;;;;;;1.50;0.90;;;19.00;92.90;;;;;;5002236;28;20486;-78
2021/07/24 01:14:18;;;;;;;1.50;1.00;;;19.00;93.30;;;;;;5007525;28;20465;-78
2021/07/24 01:16:45;;;;;;;1.50;0.90;;;18.90;93.30;;;;;;4998201;28;20487;-80
2021/07/24 01:19:12;;;;;;;1.50;0.90;;;18.90;93.50;;;;;;5013311;28;21027;-79
2021/07/24 01:21:40;;;;;;;1.50;0.90;;;18.80;93.80;;;;;;4998371;28;20487;-79
2021/07/24 01:24:07;;;;;;;1.50;0.90;;;18.80;93.10;;;;;;5007309;28;20495;-78
2021/07/24 01:26:35;;;;;;;1.50;0.90;;;18.80;94.10;;;;;;4998786;28;20480;-78
2021/07/24 01:29:03;;;;;;;1.50;1.00;;;18.80;94.10;;;;;;5023892;28;20460;-78
2021/07/24 01:31:30;;;;;;;1.50;0.90;;;18.70;94.50;;;;;;4997618;28;20472;-78
2021/07/24 01:33:56;;;;;;;1.50;1.00;;;18.70;94.30;;;;;;5015027;28;20465;-78
2021/07/24 01:36:23;;;;;;;1.50;0.90;;;18.70;93.90;;;;;;4996114;28;20476;-78
2021/07/24 01:38:51;;;;;;;1.50;0.90;;;18.70;94.40;;;;;;5017345;28;20869;-78
2021/07/24 01:41:18;;;;;;;1.50;0.90;;;18.60;94.80;;;;;;4993045;28;21002;-78
2021/07/24 01:43:45;;;;;;;1.50;0.90;;;18.60;94.10;;;;;;5008567;28;20471;-79
2021/07/24 01:46:12;;;;;;;1.50;0.90;;;18.60;94.70;;;;;;4997304;28;20475;-79
2021/07/24 01:48:41;;;;;;;1.50;0.90;;;18.60;95.20;;;;;;5014196;28;20469;-79
2021/07/24 01:53:58;;;;;;;1.50;1.00;;;18.50;94.80;;;;;;5007067;28;20503;-79
2021/07/24 01:56:28;;;;;;;1.50;1.00;;;18.50;96.10;;;;;;5001752;28;20485;-78
2021/07/24 01:58:55;;;;;;;1.50;0.90;;;18.40;95.60;;;;;;5011553;28;20484;-78
2021/07/24 02:01:23;;;;;;;1.50;0.97;;;18.40;95.50;;;;;;4994905;28;20486;-78
2021/07/24 02:03:54;;;;;;;1.50;0.90;;;18.40;95.20;;;;;;5015846;28;20464;-79
2021/07/24 02:06:21;;;;;;;1.50;0.90;;;18.40;95.90;;;;;;4994356;28;20529;-79
2021/07/24 02:08:49;;;;;;;1.50;0.90;;;18.40;96.30;;;;;;5012154;28;20461;-78
2021/07/24 02:11:20;;;;;;;1.50;0.90;;;18.30;96.00;;;;;;4991935;28;20468;-79
2021/07/24 02:13:47;;;;;;;1.50;0.90;;;18.30;96.40;;;;;;5013168;28;20460;-79
2021/07/24 02:16:14;;;;;;;1.50;0.90;;;18.30;96.90;;;;;;4990201;28;20523;-79
2021/07/24 02:18:42;;;;;;;1.50;0.90;;;18.30;96.60;;;;;;5011973;28;20485;-79
2021/07/24 02:21:10;;;;;;;1.50;0.90;;;18.30;97.20;;;;;;4989075;28;20491;-79
2021/07/24 02:23:37;;;;;;;1.50;0.90;;;18.30;97.10;;;;;;5017253;28;20468;-76
2021/07/24 02:26:04;;;;;;;1.50;0.90;;;18.20;96.70;;;;;;4994713;28;20898;-78
2021/07/24 02:28:32;;;;;;;1.50;0.90;;;18.20;96.60;;;;;;5013210;28;21123;-79
2021/07/24 02:30:58;;;;;;;1.50;0.90;;;18.20;96.90;;;;;;4991559;28;20460;-79
2021/07/24 02:33:25;;;;;;;1.50;1.00;;;18.20;97.40;;;;;;5015506;28;20472;-79
2021/07/24 02:35:52;;;;;;;1.50;1.00;;;18.20;97.10;;;;;;4983534;28;20469;-77
2021/07/24 02:38:19;;;;;;;1.50;1.00;;;18.20;98.20;;;;;;5019427;28;20466;-76
2021/07/24 02:40:45;;;;;;;1.50;1.00;;;18.10;97.20;;;;;;4995563;28;20457;-79
2021/07/24 02:43:12;;;;;;;1.50;1.00;;;18.10;97.10;;;;;;5014188;28;20956;-77
2021/07/24 02:45:40;;;;;;;1.50;0.90;;;18.10;97.20;;;;;;5003340;28;20468;-78
2021/07/24 02:48:07;;;;;;;1.50;1.00;;;18.10;98.20;;;;;;5004927;28;20481;-79
2021/07/24 02:50:34;;;;;;;1.50;0.90;;;18.00;97.90;;;;;;5003494;28;20465;-79
2021/07/24 02:53:00;;;;;;;1.50;1.00;;;18.00;98.20;;;;;;5006340;28;20482;-78
2021/07/24 02:55:27;;;;;;;1.50;1.00;;;18.00;97.80;;;;;;4999346;28;20464;-80
2021/07/24 02:57:54;;;;;;;1.50;1.00;;;18.00;98.10;;;;;;5006526;28;21149;-79
2021/07/24 03:00:21;;;;;;;1.50;1.00;;;18.00;98.20;;;;;;5000391;28;20495;-79
2021/07/24 03:02:49;;;;;;;1.50;0.90;;;18.00;98.20;;;;;;5002857;28;20480;-79
2021/07/24 03:05:15;;;;;;;1.50;1.00;;;17.90;98.10;;;;;;4999826;28;20468;-78
2021/07/24 03:07:42;;;;;;;1.50;1.00;;;17.90;98.20;;;;;;5000839;28;20483;-79
2021/07/24 03:10:10;;;;;;;1.50;0.90;;;17.90;98.20;;;;;;4998314;28;20472;-79
2021/07/24 03:12:36;;;;;;;1.50;0.97;;;17.90;98.20;;;;;;5009733;28;20475;-78
2021/07/24 03:15:04;;;;;;;1.50;1.00;;;17.90;98.20;;;;;;5000541;28;20468;-79
2021/07/24 03:17:31;;;;;;;1.50;0.90;;;17.80;98.20;;;;;;4999726;28;20487;-79
2021/07/24 03:20:02;;;;;;;1.50;1.00;;;17.80;98.20;;;;;;5002690;28;20503;-79
2021/07/24 03:22:29;;;;;;;1.50;1.00;;;17.80;98.20;;;;;;5000647;28;20499;-79
2021/07/24 03:24:56;;;;;;;1.50;1.00;;;17.80;98.20;;;;;;4998693;28;20461;-79
2021/07/24 03:27:23;;;;;;;1.50;0.90;;;17.80;98.20;;;;;;4999024;28;20504;-79
2021/07/24 03:29:50;;;;;;;1.50;1.00;;;17.80;98.20;;;;;;5003466;28;20466;-78
2021/07/24 03:32:17;;;;;;;1.53;1.00;;;17.80;98.20;;;;;;4999393;28;20475;-78
2021/07/24 03:34:44;;;;;;;1.50;0.90;;;17.80;98.20;;;;;;5002452;28;20496;-79
2021/07/24 03:37:12;;;;;;;1.50;1.00;;;17.80;98.20;;;;;;4998345;28;21036;-78
2021/07/24 03:39:39;;;;;;;1.50;1.00;;;17.80;98.20;;;;;;5005406;28;20484;-78
2021/07/24 03:42:05;;;;;;;1.50;0.90;;;17.90;98.20;;;;;;5000383;28;20486;-79
2021/07/24 03:44:32;;;;;;;1.50;1.00;;;17.90;98.20;;;;;;5006337;28;20461;-78
2021/07/24 03:46:59;;;;;;;1.50;0.90;;;17.90;98.20;;;;;;5001226;28;20479;-79
2021/07/24 03:49:26;;;;;;;1.50;0.97;;;17.90;98.20;;;;;;5009445;28;20460;-78
2021/07/24 03:51:52;;;;;;;1.50;1.00;;;18.00;98.20;;;;;;5001005;28;20479;-78
2021/07/24 03:54:20;;;;;;;1.50;0.90;;;18.00;98.20;;;;;;5005053;28;20473;-78
2021/07/24 03:56:47;;;;;;;1.50;1.00;;;18.00;98.20;;;;;;4993868;28;20493;-79
2021/07/24 03:59:14;;;;;;;1.53;1.00;;;18.00;98.20;;;;;;5001777;28;20488;-79
2021/07/24 04:01:42;;;;;;;1.50;0.97;;;18.10;98.20;;;;;;4997989;28;20912;-79
2021/07/24 04:04:09;;;;;;;1.50;0.90;;;18.10;98.20;;;;;;5009090;28;20479;-78
2021/07/24 04:06:36;;;;;;;1.50;0.97;;;18.20;98.20;;;;;;4990645;28;20483;-79
2021/07/24 04:09:05;;;;;;;1.50;0.90;;;18.20;98.20;;;;;;5003049;28;20457;-79
2021/07/24 04:11:34;;;;;;;1.50;1.00;;;18.20;98.20;;;;;;4992583;28;20488;-78
2021/07/24 04:14:01;;;;;;;1.50;0.87;;;18.30;98.20;;;;;;5012013;28;20470;-78
2021/07/24 04:16:28;;;;;;;1.50;0.90;;;18.30;98.20;;;;;;4997997;28;20480;-79
2021/07/24 04:18:55;;;;;;;1.50;0.90;;;18.40;98.20;;;;;;5013422;28;20463;-78
2021/07/24 04:21:22;;;;;;;1.50;0.90;;;18.40;98.20;;;;;;4994496;28;20884;-79
2021/07/24 04:23:49;;;;;;;1.50;0.90;;;18.50;98.20;;;;;;5007660;28;20488;-79
2021/07/24 04:26:15;;;;;;;1.50;0.90;;;18.50;98.20;;;;;;4992155;28;21015;-78
2021/07/24 04:28:43;;;;;;;1.50;0.97;;;18.60;98.20;;;;;;5008131;28;20456;-77
2021/07/24 04:31:13;;;;;;;1.50;0.90;;;18.60;98.20;;;;;;4997368;28;21362;-77
2021/07/24 04:33:40;;;;;;;1.50;0.90;;;18.70;98.20;;;;;;5011540;28;20522;-77
2021/07/24 04:36:07;;;;;;;1.50;1.00;;;18.70;98.20;;;;;;4984272;28;20480;-77
2021/07/24 04:38:34;;;;;;;1.50;0.93;;;18.80;98.20;;;;;;5009992;28;20492;-76
2021/07/24 04:41:00;;;;;;;1.50;0.97;;;18.80;98.20;;;;;;4989458;28;20484;-77
2021/07/24 04:43:27;;;;;;;1.50;0.90;;;18.80;98.20;;;;;;5018618;28;20464;-78
2021/07/24 04:45:55;;;;;;;1.50;0.93;;;18.90;98.20;;;;;;4993063;28;20468;-79
2021/07/24 04:48:22;;;;;;;1.50;0.90;;;19.00;98.20;;;;;;5015357;28;20465;-78
2021/07/24 04:50:51;;;;;;;1.50;0.90;;;19.00;98.20;;;;;;4999318;28;20460;-78
2021/07/24 04:53:19;;;;;;;1.50;0.90;;;19.10;97.90;;;;;;5019944;28;20472;-77
2021/07/24 04:55:46;;;;;;;1.50;0.90;;;19.10;97.60;;;;;;5001959;28;20472;-77
2021/07/24 04:58:15;;;;;;;1.50;0.90;;;19.20;98.00;;;;;;5019042;28;20465;-78
2021/07/24 05:00:44;;;;;;;1.50;0.90;;;19.30;97.40;;;;;;5001955;28;20484;-81
2021/07/24 05:03:13;;;;;;;1.50;1.00;;;19.30;97.20;;;;;;4989822;28;20503;-80
2021/07/24 05:05:41;;;;;;;1.50;0.90;;;19.40;97.20;;;;;;5001762;28;20463;-81
2021/07/24 05:08:08;;;;;;;1.50;0.90;;;19.40;97.30;;;;;;5009642;28;20531;-80
2021/07/24 05:10:35;;;;;;;1.50;0.90;;;19.50;97.20;;;;;;5003080;28;20485;-80
2021/07/24 05:13:02;;;;;;;1.57;1.00;;;19.50;97.30;;;;;;5008494;28;21006;-80
2021/07/24 05:15:29;;;;;;;1.50;0.90;;;19.60;97.30;;;;;;4998711;28;20461;-80
2021/07/24 05:17:55;;;;;;;1.50;0.90;;;19.60;96.80;;;;;;5003816;28;20871;-81
2021/07/24 05:20:26;;;;;;;1.50;0.90;;;19.70;97.10;;;;;;5003066;28;21016;-81
2021/07/24 05:22:53;;;;;;;1.50;0.90;;;19.80;97.40;;;;;;5008156;28;20565;-80
2021/07/24 05:25:20;;;;;;;1.50;0.90;;;19.90;97.00;;;;;;5005468;28;20473;-80
2021/07/24 05:27:46;;;;;;;1.50;0.90;;;20.10;97.20;;;;;;5010098;28;20482;-80
2021/07/24 05:30:14;;;;;;;1.50;0.90;;;20.20;96.30;;;;;;5002196;28;20468;-80
2021/07/24 05:32:42;;;;;;;1.50;0.90;;;20.30;95.80;;;;;;5004142;28;20598;-80
2021/07/24 05:35:09;;;;;;;1.50;0.90;;;20.40;95.70;;;;;;5004226;28;20523;-79
2021/07/24 05:37:37;;;;;;;1.50;1.00;;;20.50;95.70;;;;;;5012573;28;20483;-81
2021/07/24 05:40:04;;;;;;;1.50;0.90;;;20.60;95.60;;;;;;5004618;28;20495;-79
2021/07/24 05:42:31;;;;;;;1.50;0.90;;;20.70;95.40;;;;;;5007407;28;20480;-78
2021/07/24 05:44:58;;;;;;;1.50;0.90;;;20.70;95.50;;;;;;5010704;28;20460;-79
2021/07/24 05:47:25;;;;;;;1.50;0.90;;;20.80;95.80;;;;;;5008314;28;20487;-78
2021/07/24 05:49:52;;;;;;;1.50;1.00;;;20.90;95.50;;;;;;4998687;28;20491;-79
2021/07/24 05:52:18;;;;;;;1.50;0.90;;;20.90;95.50;;;;;;5000612;28;21025;-79
2021/07/24 05:54:48;;;;;;;1.50;0.90;;;21.00;95.20;;;;;;5007635;28;21001;-78
2021/07/24 05:57:15;;;;;;;1.50;0.90;;;21.10;95.10;;;;;;5007600;28;20483;-79
2021/07/24 05:59:42;;;;;;;1.50;0.90;;;21.20;94.70;;;;;;5010477;28;20488;-79
2021/07/24 06:02:11;;;;;;;1.50;0.90;;;21.30;95.00;;;;;;5001081;28;20475;-79
2021/07/24 06:04:39;;;;;;;1.50;0.90;;;21.50;94.40;;;;;;5000597;28;20461;-79
2021/07/24 06:07:06;;;;;;;1.50;0.90;;;21.60;93.60;;;;;;5002346;28;20562;-79
2021/07/24 06:09:33;;;;;;;1.50;0.90;;;21.70;94.30;;;;;;5001058;28;20465;-81
2021/07/24 06:12:01;;;;;;;1.50;0.90;;;21.90;93.40;;;;;;5004446;28;20483;-79
2021/07/24 06:14:28;;;;;;;1.50;0.90;;;22.10;92.50;;;;;;5001779;28;20477;-80
2021/07/24 06:16:55;;;;;;;1.50;0.90;;;22.30;91.80;;;;;;4996332;28;20979;-80
2021/07/24 06:19:22;;;;;;;1.50;0.90;;;22.40;91.00;;;;;;5004953;28;20469;-80
2021/07/24 06:21:49;;;;;;;2.23;1.37;;;22.50;90.90;;;;;;4994679;28;20494;-80
2021/07/24 06:24:16;;;;;;;1.53;1.00;;;22.50;90.90;;;;;;5001611;28;20468;-79
2021/07/24 06:26:43;;;;;;;1.50;0.90;;;22.60;90.90;;;;;;4994594;28;20479;-80
2021/07/24 06:29:11;;;;;;;1.53;0.90;;;22.60;90.60;;;;;;5005294;28;20943;-80
2021/07/24 06:31:38;;;;;;;1.50;0.90;;;22.60;90.40;;;;;;4993157;28;20483;-80
2021/07/24 06:34:05;;;;;;;1.50;0.90;;;22.70;90.20;;;;;;5007476;28;20469;-80
2021/07/24 06:36:32;;;;;;;1.50;0.90;;;22.70;90.30;;;;;;4997327;28;20479;-78
2021/07/24 06:38:58;;;;;;;1.50;0.90;;;22.70;90.10;;;;;;5006148;28;20476;-78
2021/07/24 06:41:26;;;;;;;1.50;0.90;;;22.80;89.90;;;;;;4990662;28;20484;-80
2021/07/24 06:43:54;;;;;;;1.50;0.90;;;22.80;89.30;;;;;;5009434;28;20491;-79
2021/07/24 06:46:23;;;;;;;1.50;0.90;;;22.80;88.90;;;;;;4988196;28;21175;-80
2021/07/24 06:48:50;;;;;;;1.50;0.90;;;22.80;89.10;;;;;;5007321;28;20836;-79
2021/07/24 06:51:17;;;;;;;1.50;0.90;;;22.90;89.00;;;;;;4993027;28;20491;-79
2021/07/24 06:53:44;;;;;;;1.50;0.80;;;22.90;90.10;;;;;;5012057;28;20464;-79
2021/07/24 06:56:10;;;;;;;1.50;0.90;;;22.90;90.30;;;;;;4992748;28;20475;-79
2021/07/24 06:58:37;;;;;;;1.50;0.90;;;22.90;89.90;;;;;;5015954;28;20472;-80
2021/07/24 07:01:07;;;;;;;1.50;0.90;;;22.90;90.10;;;;;;4997253;28;20491;-79
2021/07/24 07:03:35;;;;;;;1.50;0.90;;;23.00;90.40;;;;;;5018247;28;20465;-79
2021/07/24 07:06:05;;;;;;;1.50;0.90;;;23.00;90.20;;;;;;4988256;28;20489;-79
2021/07/24 07:08:32;;;;;;;1.50;0.90;;;23.10;89.90;;;;;;5013019;28;20465;-79
2021/07/24 07:11:02;;;;;;;1.50;0.90;;;23.20;90.10;;;;;;4990079;28;20487;-80
2021/07/24 07:13:28;;;;;;;1.50;0.90;;;23.30;89.90;;;;;;5012993;28;20465;-83
2021/07/24 07:15:55;;;;;;;1.50;0.80;;;23.20;89.40;;;;;;4985824;28;20460;-79
2021/07/24 07:18:22;;;;;;;1.50;0.90;;;23.20;89.70;;;;;;5009797;28;21334;-78
2021/07/24 07:20:50;;;;;;;1.50;0.90;;;23.20;89.60;;;;;;4981373;28;20489;-78
2021/07/24 07:23:18;;;;;;;1.50;0.90;;;23.10;90.30;;;;;;5008517;28;20461;-79
2021/07/24 07:25:55;;;;;;;1.50;0.90;;;23.00;90.50;;;;;;4992489;28;20520;-78
2021/07/24 07:28:22;;;;;;;1.50;0.90;;;22.90;90.50;;;;;;4990533;28;20483;-81
2021/07/24 07:30:49;;;;;;;1.50;0.90;;;22.90;90.80;;;;;;4991686;28;20457;-80
2021/07/24 07:33:16;;;;;;;1.50;0.90;;;23.00;91.00;;;;;;5005479;28;20464;-80
2021/07/24 07:35:43;;;;;;;1.50;0.90;;;23.00;90.90;;;;;;5001080;28;20472;-79
2021/07/24 07:38:11;;;;;;;1.50;0.90;;;23.20;91.00;;;;;;5003814;28;20479;-81
2021/07/24 07:40:39;;;;;;;1.50;0.90;;;23.40;89.90;;;;;;4999114;28;21086;-81
2021/07/24 07:43:07;;;;;;;1.50;0.90;;;23.50;88.60;;;;;;5007997;28;20479;-80
2021/07/24 07:45:34;;;;;;;1.50;0.90;;;23.60;89.10;;;;;;4992385;28;20930;-81
2021/07/24 07:48:01;;;;;;;1.50;0.90;;;23.80;88.40;;;;;;5004661;28;20491;-81
2021/07/24 07:50:28;;;;;;;1.50;0.80;;;24.00;87.70;;;;;;5002963;28;21003;-84
2021/07/24 07:52:54;;;;;;;1.50;0.90;;;24.10;87.00;;;;;;5006068;28;20486;-82
2021/07/24 07:55:22;;;;;;;1.50;0.80;;;24.20;85.60;;;;;;5007705;28;20464;-82
2021/07/24 07:57:49;;;;;;;1.50;0.90;;;24.20;85.80;;;;;;5009525;28;20480;-81
2021/07/24 08:00:17;;;;;;;1.50;0.90;;;24.30;85.50;;;;;;5006234;28;20492;-81
2021/07/24 08:02:43;;;;;;;1.50;0.90;;;24.40;85.40;;;;;;5001457;28;20479;-80
2021/07/24 08:05:11;;;;;;;1.50;0.90;;;24.40;84.90;;;;;;5005421;28;20471;-84
2021/07/24 08:07:37;;;;;;;1.50;0.90;;;24.30;84.40;;;;;;5011922;28;20479;-83
2021/07/24 08:10:05;;;;;;;1.50;0.90;;;24.30;84.90;;;;;;5007364;28;20460;-81
2021/07/24 08:12:33;;;;;;;1.77;1.00;;;24.30;85.10;;;;;;5003560;28;20480;-84
2021/07/24 08:15:00;;;;;;;1.50;0.90;;;24.30;85.60;;;;;;5006373;28;20843;-82
2021/07/24 08:17:27;;;;;;;1.50;0.80;;;24.20;85.80;;;;;;5001017;28;20492;-79
2021/07/24 08:19:54;;;;;;;1.50;0.90;;;24.30;85.90;;;;;;5000709;28;20839;-81
2021/07/24 08:22:21;;;;;;;1.60;1.20;;;24.30;85.50;;;;;;4998368;28;20479;-81
2021/07/24 08:24:47;;;;;;;1.50;0.80;;;24.30;85.20;;;;;;5007998;28;20456;-79
2021/07/24 08:27:14;;;;;;;1.50;0.90;;;24.40;85.50;;;;;;5004836;28;21096;-83
2021/07/24 08:29:42;;;;;;;1.50;0.90;;;24.60;85.50;;;;;;5003621;28;20855;-79
2021/07/24 08:32:09;;;;;;;1.50;0.87;;;24.70;85.20;;;;;;4991759;28;20480;-77
2021/07/24 08:34:36;;;;;;;1.50;0.90;;;24.90;85.10;;;;;;5000950;28;20473;-80
2021/07/24 08:37:03;;;;;;;1.60;1.27;;;25.00;83.80;;;;;;4996892;28;20491;-79
2021/07/24 08:39:37;;;;;;;1.50;0.90;;;25.00;83.40;;;;;;5009375;28;20467;-80
2021/07/24 08:42:06;;;;;;;1.50;0.90;;;25.10;83.90;;;;;;4996740;28;21073;-77
2021/07/24 08:44:36;;;;;;;1.50;1.10;;;25.10;83.80;;;;;;5011011;28;20476;-79
2021/07/24 08:47:04;;;;;;;1.50;0.90;;;25.10;83.40;;;;;;5005584;28;20502;-81
2021/07/24 08:49:31;;;;;;;1.50;0.83;;;25.10;83.50;;;;;;5000592;28;20469;-79
2021/07/24 08:51:59;;;;;;;1.50;0.90;;;25.10;82.80;;;;;;5003571;28;20872;-79
2021/07/24 08:54:26;;;;;;;1.50;0.90;;;25.10;82.90;;;;;;5007296;28;20472;-81
2021/07/24 08:56:54;;;;;;;1.43;0.90;;;25.00;83.00;;;;;;4999413;28;20491;-79
2021/07/24 08:59:21;;;;;;;2.47;2.27;;;24.90;83.40;;;;;;5001715;28;20972;-80
2021/07/24 09:01:52;;;;;;;2.43;2.13;;;24.90;83.70;;;;;;5003356;28;20484;-82
2021/07/24 09:04:21;;;;;;;1.50;0.90;;;24.80;83.50;;;;;;5012158;28;20494;-81
2021/07/24 09:06:51;;;;;;;1.50;0.90;;;24.80;84.00;;;;;;5000082;28;20572;-82
2021/07/24 09:09:19;;;;;;;1.50;0.90;;;24.70;84.10;;;;;;5012151;28;21093;-79
2021/07/24 09:11:46;;;;;;;1.50;0.90;;;24.70;83.80;;;;;;5001213;28;20479;-81
2021/07/24 09:14:13;;;;;;;1.50;0.80;;;24.70;84.40;;;;;;5013549;28;20461;-79
2021/07/24 09:16:42;;;;;;;1.50;0.90;;;24.80;84.30;;;;;;5000888;28;20487;-82
2021/07/24 09:19:09;;;;;;;1.50;1.10;;;24.80;84.20;;;;;;5005975;28;20469;-80
2021/07/24 09:21:39;;;;;;;1.50;0.90;;;24.90;84.00;;;;;;4999473;28;20475;-82
2021/07/24 09:24:21;;;;;;;1.47;0.80;;;24.80;82.90;;;;;;5006402;28;21062;-80
2021/07/24 09:26:48;;;;;;;1.70;1.60;;;24.70;83.10;;;;;;5001779;28;21141;-82
2021/07/24 09:29:16;;;;;;;1.50;0.90;;;24.70;83.20;;;;;;4996590;28;20479;-81
2021/07/24 09:31:43;;;;;;;1.50;0.90;;;24.80;83.20;;;;;;5006117;28;20483;-80
2021/07/24 09:34:11;;;;;;;1.80;1.60;;;24.70;83.80;;;;;;5011160;28;20467;-82
2021/07/24 09:36:42;;;;;;;1.50;0.90;;;24.80;83.40;;;;;;4995443;28;20585;-80
2021/07/24 09:39:13;;;;;;;1.50;0.90;;;24.90;83.50;;;;;;5006868;28;20465;-82
2021/07/24 09:41:42;;;;;;;1.47;0.80;;;25.00;83.00;;;;;;4991991;28;20492;-82
2021/07/24 09:44:09;;;;;;;1.50;0.90;;;25.00;83.30;;;;;;5007650;28;20472;-81
2021/07/24 09:46:36;;;;;;;1.50;0.90;;;25.00;82.40;;;;;;4994209;28;20912;-79
2021/07/24 09:49:14;;;;;;;2.40;2.20;;;25.00;82.60;;;;;;5007256;28;20473;-80
2021/07/24 09:51:44;;;;;;;3.50;1.30;;;25.00;83.30;;;;;;4997073;28;20852;-80
2021/07/24 09:54:26;;;;;;;1.50;0.90;;;25.00;82.60;;;;;;5008657;28;20471;-82
2021/07/24 09:56:53;;;;;;;1.50;0.87;;;25.00;82.90;;;;;;5002884;28;21072;-82
2021/07/24 09:59:22;;;;;;;3.30;2.70;;;25.00;82.70;;;;;;5007924;28;20472;-80
2021/07/24 10:01:56;;;;;;;1.40;0.80;;;25.00;83.00;;;;;;4990178;28;20897;-80
2021/07/24 10:04:25;;;;;;;1.50;0.87;;;24.90;83.00;;;;;;5007016;28;20507;-80
2021/07/24 10:06:56;;;;;;;1.47;0.83;;;24.90;82.90;;;;;;4998735;28;21017;-82
2021/07/24 10:09:27;;;;;;;1.47;0.90;;;24.80;83.20;;;;;;5002753;28;21020;-83
2021/07/24 10:11:55;;;;;;;1.50;0.87;;;24.80;83.00;;;;;;5004681;28;20488;-84
2021/07/24 10:14:22;;;;;;;1.50;0.87;;;24.80;83.60;;;;;;5007568;28;20472;-82
2021/07/24 10:16:50;;;;;;;1.47;0.80;;;24.80;83.20;;;;;;4999163;28;20506;-82
2021/07/24 10:19:18;;;;;;;1.47;0.90;;;24.90;83.70;;;;;;5008381;28;20464;-87
2021/07/24 10:21:45;;;;;;;1.47;0.90;;;24.90;83.70;;;;;;4994444;28;20480;-82
2021/07/24 10:24:13;;;;;;;1.47;0.80;;;25.00;83.10;;;;;;5015208;28;20464;-79
2021/07/24 10:26:50;;;;;;;1.50;0.90;;;25.00;83.00;;;;;;5010543;28;20491;-78
2021/07/24 10:29:35;;;;;;;1.50;0.90;;;25.00;83.30;;;;;;5011268;28;20460;-81
2021/07/24 10:32:06;;;;;;;1.50;0.90;;;25.00;83.20;;;;;;5000835;28;20490;-79
2021/07/24 10:34:35;;;;;;;1.50;0.83;;;25.00;83.60;;;;;;5006289;28;20465;-81
2021/07/24 10:37:21;;;;;;;1.50;0.90;;;25.00;84.00;;;;;;5003195;28;20497;-83
2021/07/24 10:39:49;;;;;;;1.47;0.90;;;25.00;83.60;;;;;;5003264;28;20526;-83
2021/07/24 10:42:16;;;;;;;1.50;0.90;;;25.10;84.00;;;;;;5000984;28;20954;-82
2021/07/24 10:44:46;;;;;;;1.50;1.10;;;25.10;83.60;;;;;;5010115;28;20999;-82
2021/07/24 10:47:20;;;;;;;1.43;0.80;;;25.10;83.10;;;;;;5004328;28;20498;-83
2021/07/24 10:50:00;;;;;;;1.50;0.90;;;25.20;82.90;;;;;;5005435;28;20463;-85
2021/07/24 10:52:28;;;;;;;1.50;0.90;;;25.20;83.20;;;;;;4997228;28;20500;-80
2021/07/24 10:55:15;;;;;;;1.47;0.80;;;25.20;83.40;;;;;;5004561;28;20468;-80
2021/07/24 10:58:06;;;;;;;1.47;0.90;;;25.20;83.20;;;;;;5004307;28;20970;-80
2021/07/24 11:00:53;;;;;;;1.47;0.80;;;25.00;83.60;;;;;;5004368;28;20473;-79
2021/07/24 11:03:39;;;;;;;1.50;0.90;;;24.90;84.20;;;;;;4990048;28;20546;-80
2021/07/24 11:06:27;;;;;;;1.50;0.90;;;24.90;84.50;;;;;;4989590;28;21029;-80
2021/07/24 11:09:17;;;;;;;1.50;0.90;;;24.90;84.70;;;;;;4998039;28;20492;-82
2021/07/24 11:12:07;;;;;;;1.50;0.87;;;24.90;84.60;;;;;;4998442;28;20476;-83
2021/07/24 11:14:55;;;;;;;1.50;0.80;;;24.90;84.50;;;;;;5008123;28;20479;-83
2021/07/24 11:17:22;;;;;;;1.50;0.90;;;24.90;84.60;;;;;;4999358;28;20941;-81
2021/07/24 11:20:26;;;;;;;1.47;0.80;;;24.80;84.80;;;;;;5007154;28;20479;-84
2021/07/24 11:23:06;;;;;;;1.50;0.80;;;24.90;84.80;;;;;;5001030;28;20851;-83
2021/07/24 11:25:36;;;;;;;1.50;1.00;;;25.00;84.70;;;;;;5005730;28;20963;-84
2021/07/24 11:28:05;;;;;;;1.70;1.23;;;25.00;84.80;;;;;;5006158;28;20484;-81
2021/07/24 11:30:32;;;;;;;1.47;0.90;;;25.10;84.50;;;;;;5003671;28;20470;-84
2021/07/24 11:32:59;;;;;;;1.47;0.80;;;25.10;84.60;;;;;;4998373;28;20491;-80
2021/07/24 11:35:33;;;;;;;1.50;0.90;;;25.20;84.80;;;;;;5001985;28;20583;-82
2021/07/24 11:38:01;;;;;;;1.47;0.90;;;25.30;84.50;;;;;;4999564;28;20490;-80
2021/07/24 11:40:29;;;;;;;1.47;0.90;;;25.40;84.80;;;;;;4998479;28;20552;-81
2021/07/24 11:42:59;;;;;;;1.47;0.90;;;25.30;84.30;;;;;;5002341;28;20482;-83
2021/07/24 11:45:28;;;;;;;1.50;0.90;;;25.30;84.60;;;;;;4994257;28;20478;-83
2021/07/24 11:48:09;;;;;;;1.50;0.80;;;25.20;84.30;;;;;;5006481;28;20491;-81
2021/07/24 11:50:37;;;;;;;1.50;0.80;;;25.20;84.40;;;;;;4993542;28;20471;-83
2021/07/24 11:53:04;;;;;;;1.47;0.80;;;25.20;85.20;;;;;;4995486;28;20508;-82
2021/07/24 11:55:33;;;;;;;1.50;0.87;;;25.20;85.10;;;;;;4994010;28;20472;-80
2021/07/24 11:58:06;;;;;;;1.47;0.80;;;25.10;84.50;;;;;;4983310;28;20480;-83
2021/07/24 12:00:36;;;;;;;1.47;0.90;;;25.00;85.10;;;;;;4998169;28;20496;-82
2021/07/24 12:03:19;;;;;;;1.50;0.80;;;25.00;84.90;;;;;;5007053;28;20490;-83
2021/07/24 12:05:47;;;;;;;1.47;0.90;;;24.90;84.70;;;;;;5000945;28;20472;-82
2021/07/24 12:08:15;;;;;;;1.50;0.87;;;24.90;84.80;;;;;;4989313;28;20473;-83
2021/07/24 12:10:44;;;;;;;1.50;0.90;;;24.90;85.40;;;;;;4998589;28;20460;-84
2021/07/24 12:13:11;;;;;;;1.50;1.00;;;24.80;84.90;;;;;;4986476;28;20991;-83
2021/07/24 12:16:13;;;;;;;1.47;0.87;;;24.80;84.90;;;;;;5003637;28;21414;-83
2021/07/24 12:18:42;;;;;;;1.47;0.90;;;24.70;85.20;;;;;;4981914;28;20486;-83
2021/07/24 12:21:13;;;;;;;1.47;0.80;;;24.60;85.40;;;;;;4988581;28;20479;-81
2021/07/24 12:23:44;;;;;;;1.50;0.90;;;24.60;86.10;;;;;;4995184;28;20472;-84
2021/07/24 12:26:14;;;;;;;1.50;0.90;;;24.50;86.70;;;;;;4987810;28;21399;-82
2021/07/24 12:28:42;;;;;;;1.50;1.00;;;24.50;87.30;;;;;;5012910;28;20491;-82
2021/07/24 12:31:25;;;;;;;1.50;0.90;;;24.40;88.00;;;;;;4988870;28;20467;-84
2021/07/24 12:33:54;;;;;;;1.50;0.90;;;24.30;89.50;;;;;;4993659;28;20464;-81
2021/07/24 12:36:23;;;;;;;1.50;0.90;;;24.30;90.00;;;;;;4983459;28;21389;-82
2021/07/24 12:38:51;;;;;;;1.50;0.90;;;24.20;90.70;;;;;;5007416;28;20462;-82
2021/07/24 12:41:27;;;;;;;1.50;0.90;;;24.10;91.70;;;;;;4992348;28;20496;-81
2021/07/24 12:44:04;;;;;;;1.53;1.00;;;24.00;91.60;;;;;;5003811;28;20460;-80
2021/07/24 12:46:35;;;;;;;1.50;0.90;;;23.90;91.70;;;;;;4989280;28;20494;-81
2021/07/24 12:49:01;;;;;;;1.50;0.90;;;23.90;93.10;;;;;;5010857;28;21022;-81
2021/07/24 12:51:40;;;;;;;1.47;0.90;;;23.80;94.50;;;;;;4992465;28;20587;-81
2021/07/24 12:54:12;;;;;;;1.50;0.90;;;23.70;94.50;;;;;;5002376;28;20488;-79
2021/07/24 12:56:42;;;;;;;1.50;0.90;;;23.70;95.00;;;;;;4994090;28;20558;-81
2021/07/24 12:59:09;;;;;;;1.50;0.90;;;23.60;95.50;;;;;;5002473;28;20470;-81